KUCY/UCY METAR and TAF weather

Enter ICAO airport designator
Station Type Date Time Source
KUCY METAR 2023/02/05 12:55 UTC NOAA

KUCY 051255Z AUTO 20009KT 10SM CLR 05/M00 A3013 RMK A01


Station Type Date Time Source
KUCY Decoded METAR 2023/02/05 12:55 UTC NOAA

Station name not available
Feb 05, 2023 - 07:55 AM EST / 2023.02.05 1255 UTC
Wind: from the SSW (200 degrees) at 10 MPH (9 KT):0
Visibility: 10 mile(s):0
Sky conditions: clear
Temperature: 41 F (5 C)
Dew Point: 32 F (0 C)
Relative Humidity: 70%
Pressure (altimeter): 30.13 in. Hg (1020 hPa)
ob: KUCY 051255Z AUTO 20009KT 10SM CLR 05/M00 A3013 RMK A01
cycle: 13

Station Type Date Time Source
KUCY TAF UTC NOAA

Error!

Example: see airport list